sensor_id;sensor_type;location;lat;lon;timestamp;temperature;humidity
67942;SHT31;54731;42.600;23.476;2022-09-29T00:02:22;16.58;65.61
67942;SHT31;54731;42.600;23.476;2022-09-29T00:04:47;16.55;65.78
67942;SHT31;54731;42.600;23.476;2022-09-29T00:07:13;16.53;66.28
67942;SHT31;54731;42.600;23.476;2022-09-29T00:09:38;16.47;66.87
67942;SHT31;54731;42.600;23.476;2022-09-29T00:12:03;16.40;67.01
67942;SHT31;54731;42.600;23.476;2022-09-29T00:14:29;16.26;67.81
67942;SHT31;54731;42.600;23.476;2022-09-29T00:16:54;16.26;68.10
67942;SHT31;54731;42.600;23.476;2022-09-29T00:19:20;16.22;68.21
67942;SHT31;54731;42.600;23.476;2022-09-29T00:21:45;16.22;68.22
67942;SHT31;54731;42.600;23.476;2022-09-29T00:24:10;16.15;68.50
67942;SHT31;54731;42.600;23.476;2022-09-29T00:26:36;16.08;69.11
67942;SHT31;54731;42.600;23.476;2022-09-29T00:29:02;16.10;68.72
67942;SHT31;54731;42.600;23.476;2022-09-29T00:31:29;16.07;68.78
67942;SHT31;54731;42.600;23.476;2022-09-29T00:33:55;16.05;68.29
67942;SHT31;54731;42.600;23.476;2022-09-29T00:36:21;16.00;67.82
67942;SHT31;54731;42.600;23.476;2022-09-29T00:38:49;16.05;67.81
67942;SHT31;54731;42.600;23.476;2022-09-29T00:41:19;16.01;67.97
67942;SHT31;54731;42.600;23.476;2022-09-29T00:46:16;16.00;68.44
67942;SHT31;54731;42.600;23.476;2022-09-29T00:48:43;15.86;68.89
67942;SHT31;54731;42.600;23.476;2022-09-29T00:51:08;15.84;69.60
67942;SHT31;54731;42.600;23.476;2022-09-29T00:53:34;15.79;69.30
67942;SHT31;54731;42.600;23.476;2022-09-29T00:56:05;15.73;69.69
67942;SHT31;54731;42.600;23.476;2022-09-29T00:58:41;15.73;69.71
67942;SHT31;54731;42.600;23.476;2022-09-29T01:01:07;15.67;70.21
67942;SHT31;54731;42.600;23.476;2022-09-29T01:03:37;15.69;70.26
67942;SHT31;54731;42.600;23.476;2022-09-29T01:06:18;15.66;70.08
67942;SHT31;54731;42.600;23.476;2022-09-29T01:08:56;15.63;70.14
67942;SHT31;54731;42.600;23.476;2022-09-29T01:11:23;15.59;69.97
67942;SHT31;54731;42.600;23.476;2022-09-29T01:13:49;15.57;69.94
67942;SHT31;54731;42.600;23.476;2022-09-29T01:16:16;15.57;69.55
67942;SHT31;54731;42.600;23.476;2022-09-29T01:18:42;15.64;69.49
67942;SHT31;54731;42.600;23.476;2022-09-29T01:36:02;15.53;69.71
67942;SHT31;54731;42.600;23.476;2022-09-29T01:41:06;15.54;69.88
67942;SHT31;54731;42.600;23.476;2022-09-29T01:43:39;15.49;69.92
67942;SHT31;54731;42.600;23.476;2022-09-29T01:46:15;15.50;69.96
67942;SHT31;54731;42.600;23.476;2022-09-29T01:48:45;15.49;70.02
67942;SHT31;54731;42.600;23.476;2022-09-29T01:51:17;15.44;69.97
67942;SHT31;54731;42.600;23.476;2022-09-29T01:53:48;15.37;70.46
67942;SHT31;54731;42.600;23.476;2022-09-29T01:56:20;15.33;70.68
67942;SHT31;54731;42.600;23.476;2022-09-29T01:58:52;15.27;71.04
67942;SHT31;54731;42.600;23.476;2022-09-29T02:01:22;15.19;71.62
67942;SHT31;54731;42.600;23.476;2022-09-29T02:04:01;15.12;72.04
67942;SHT31;54731;42.600;23.476;2022-09-29T02:06:35;15.07;72.54
67942;SHT31;54731;42.600;23.476;2022-09-29T02:09:02;15.02;72.78
67942;SHT31;54731;42.600;23.476;2022-09-29T02:11:31;14.98;72.93
67942;SHT31;54731;42.600;23.476;2022-09-29T02:14:02;14.92;73.07
67942;SHT31;54731;42.600;23.476;2022-09-29T02:16:30;14.85;73.17
67942;SHT31;54731;42.600;23.476;2022-09-29T02:19:06;14.88;73.43
67942;SHT31;54731;42.600;23.476;2022-09-29T02:21:32;14.72;73.73
67942;SHT31;54731;42.600;23.476;2022-09-29T02:23:57;14.72;73.91
67942;SHT31;54731;42.600;23.476;2022-09-29T02:26:25;14.69;74.02
67942;SHT31;54731;42.600;23.476;2022-09-29T02:28:53;14.69;74.06
67942;SHT31;54731;42.600;23.476;2022-09-29T02:31:18;14.64;74.31
67942;SHT31;54731;42.600;23.476;2022-09-29T02:33:43;14.57;74.57
67942;SHT31;54731;42.600;23.476;2022-09-29T02:39:40;14.49;74.68
67942;SHT31;54731;42.600;23.476;2022-09-29T02:42:34;14.45;74.99
67942;SHT31;54731;42.600;23.476;2022-09-29T03:00:35;14.33;75.82
67942;SHT31;54731;42.600;23.476;2022-09-29T03:03:01;14.31;75.84
67942;SHT31;54731;42.600;23.476;2022-09-29T03:05:26;14.27;75.86
67942;SHT31;54731;42.600;23.476;2022-09-29T03:07:52;14.31;75.84
67942;SHT31;54731;42.600;23.476;2022-09-29T03:10:18;14.28;75.63
67942;SHT31;54731;42.600;23.476;2022-09-29T03:12:43;14.25;75.96
67942;SHT31;54731;42.600;23.476;2022-09-29T03:15:09;14.23;76.04
67942;SHT31;54731;42.600;23.476;2022-09-29T03:17:34;14.16;76.54
67942;SHT31;54731;42.600;23.476;2022-09-29T03:20:00;14.07;76.78
67942;SHT31;54731;42.600;23.476;2022-09-29T03:22:25;14.10;76.60
67942;SHT31;54731;42.600;23.476;2022-09-29T03:24:51;14.09;76.49
67942;SHT31;54731;42.600;23.476;2022-09-29T03:27:16;14.16;76.41
67942;SHT31;54731;42.600;23.476;2022-09-29T03:29:42;14.17;76.05
67942;SHT31;54731;42.600;23.476;2022-09-29T03:32:08;14.11;76.27
67942;SHT31;54731;42.600;23.476;2022-09-29T03:34:33;14.09;76.09
67942;SHT31;54731;42.600;23.476;2022-09-29T03:36:58;14.09;76.02
67942;SHT31;54731;42.600;23.476;2022-09-29T03:39:24;14.16;75.59
67942;SHT31;54731;42.600;23.476;2022-09-29T03:41:50;14.20;75.40
67942;SHT31;54731;42.600;23.476;2022-09-29T03:44:15;14.20;75.55
67942;SHT31;54731;42.600;23.476;2022-09-29T03:46:41;14.27;75.31
67942;SHT31;54731;42.600;23.476;2022-09-29T03:49:09;14.24;75.54
67942;SHT31;54731;42.600;23.476;2022-09-29T03:51:34;14.24;75.48
67942;SHT31;54731;42.600;23.476;2022-09-29T03:54:00;14.23;75.39
67942;SHT31;54731;42.600;23.476;2022-09-29T03:56:25;14.28;75.55
67942;SHT31;54731;42.600;23.476;2022-09-29T03:58:50;14.37;74.81
67942;SHT31;54731;42.600;23.476;2022-09-29T04:01:16;14.33;74.88
67942;SHT31;54731;42.600;23.476;2022-09-29T04:03:41;14.31;75.05
67942;SHT31;54731;42.600;23.476;2022-09-29T04:06:06;14.18;75.78
67942;SHT31;54731;42.600;23.476;2022-09-29T04:08:34;14.20;75.92
67942;SHT31;54731;42.600;23.476;2022-09-29T04:11:00;14.18;75.62
67942;SHT31;54731;42.600;23.476;2022-09-29T04:13:25;14.23;75.45
67942;SHT31;54731;42.600;23.476;2022-09-29T04:15:50;14.23;75.25
67942;SHT31;54731;42.600;23.476;2022-09-29T04:18:16;14.31;74.53
67942;SHT31;54731;42.600;23.476;2022-09-29T04:20:41;14.37;74.05
67942;SHT31;54731;42.600;23.476;2022-09-29T04:23:06;14.45;73.12
67942;SHT31;54731;42.600;23.476;2022-09-29T04:25:32;14.51;72.50
67942;SHT31;54731;42.600;23.476;2022-09-29T04:27:57;14.57;71.33
67942;SHT31;54731;42.600;23.476;2022-09-29T04:30:23;14.62;71.40
67942;SHT31;54731;42.600;23.476;2022-09-29T04:32:48;14.71;70.20
67942;SHT31;54731;42.600;23.476;2022-09-29T04:35:13;14.78;70.33
67942;SHT31;54731;42.600;23.476;2022-09-29T04:37:38;14.79;70.41
67942;SHT31;54731;42.600;23.476;2022-09-29T04:40:04;14.62;73.07
67942;SHT31;54731;42.600;23.476;2022-09-29T04:42:30;14.24;74.65
67942;SHT31;54731;42.600;23.476;2022-09-29T04:44:55;13.99;75.05
67942;SHT31;54731;42.600;23.476;2022-09-29T04:47:21;13.89;75.40
67942;SHT31;54731;42.600;23.476;2022-09-29T04:49:46;13.87;75.62
67942;SHT31;54731;42.600;23.476;2022-09-29T04:52:12;13.76;76.24
67942;SHT31;54731;42.600;23.476;2022-09-29T04:54:37;13.77;76.86
67942;SHT31;54731;42.600;23.476;2022-09-29T04:57:03;13.74;77.38
67942;SHT31;54731;42.600;23.476;2022-09-29T04:59:28;13.66;77.51
67942;SHT31;54731;42.600;23.476;2022-09-29T05:01:54;13.63;77.45
67942;SHT31;54731;42.600;23.476;2022-09-29T05:04:19;13.63;77.83
67942;SHT31;54731;42.600;23.476;2022-09-29T05:06:45;13.58;78.29
67942;SHT31;54731;42.600;23.476;2022-09-29T05:09:10;13.60;77.92
67942;SHT31;54731;42.600;23.476;2022-09-29T05:11:36;13.67;77.58
67942;SHT31;54731;42.600;23.476;2022-09-29T05:14:01;13.74;77.20
67942;SHT31;54731;42.600;23.476;2022-09-29T05:16:27;13.81;76.42
67942;SHT31;54731;42.600;23.476;2022-09-29T05:18:52;13.90;76.41
67942;SHT31;54731;42.600;23.476;2022-09-29T05:21:17;14.07;72.72
67942;SHT31;54731;42.600;23.476;2022-09-29T05:23:43;14.37;67.81
67942;SHT31;54731;42.600;23.476;2022-09-29T05:26:09;14.75;65.43
67942;SHT31;54731;42.600;23.476;2022-09-29T05:28:36;14.88;65.55
67942;SHT31;54731;42.600;23.476;2022-09-29T05:31:03;14.98;65.75
67942;SHT31;54731;42.600;23.476;2022-09-29T05:33:29;15.09;65.67
67942;SHT31;54731;42.600;23.476;2022-09-29T05:35:54;15.15;65.53
67942;SHT31;54731;42.600;23.476;2022-09-29T05:38:20;15.27;64.53
67942;SHT31;54731;42.600;23.476;2022-09-29T05:40:45;15.49;62.82
67942;SHT31;54731;42.600;23.476;2022-09-29T05:43:10;15.66;62.62
67942;SHT31;54731;42.600;23.476;2022-09-29T05:45:36;15.81;61.52
67942;SHT31;54731;42.600;23.476;2022-09-29T05:48:01;15.96;62.08
67942;SHT31;54731;42.600;23.476;2022-09-29T05:50:26;16.01;61.00
67942;SHT31;54731;42.600;23.476;2022-09-29T05:52:52;16.10;61.52
67942;SHT31;54731;42.600;23.476;2022-09-29T05:55:17;16.22;59.18
67942;SHT31;54731;42.600;23.476;2022-09-29T05:57:46;16.36;60.08
67942;SHT31;54731;42.600;23.476;2022-09-29T06:00:12;16.41;59.11
67942;SHT31;54731;42.600;23.476;2022-09-29T06:02:37;16.48;60.75
67942;SHT31;54731;42.600;23.476;2022-09-29T06:05:03;16.53;59.00
67942;SHT31;54731;42.600;23.476;2022-09-29T06:07:28;16.56;59.34
67942;SHT31;54731;42.600;23.476;2022-09-29T06:09:53;16.61;60.23
67942;SHT31;54731;42.600;23.476;2022-09-29T06:12:19;16.71;59.63
67942;SHT31;54731;42.600;23.476;2022-09-29T06:14:44;16.77;58.87
67942;SHT31;54731;42.600;23.476;2022-09-29T06:17:10;16.80;63.06
67942;SHT31;54731;42.600;23.476;2022-09-29T06:19:36;16.75;64.51
67942;SHT31;54731;42.600;23.476;2022-09-29T06:22:02;16.65;64.28
67942;SHT31;54731;42.600;23.476;2022-09-29T06:24:28;16.65;63.97
67942;SHT31;54731;42.600;23.476;2022-09-29T06:26:53;16.68;62.36
67942;SHT31;54731;42.600;23.476;2022-09-29T06:29:18;16.68;59.90
67942;SHT31;54731;42.600;23.476;2022-09-29T06:31:44;16.71;60.93
67942;SHT31;54731;42.600;23.476;2022-09-29T06:34:09;16.76;65.66
67942;SHT31;54731;42.600;23.476;2022-09-29T06:36:39;16.69;66.58
67942;SHT31;54731;42.600;23.476;2022-09-29T06:39:09;16.59;66.65
67942;SHT31;54731;42.600;23.476;2022-09-29T06:41:35;16.59;66.98
67942;SHT31;54731;42.600;23.476;2022-09-29T06:44:01;16.48;67.18
67942;SHT31;54731;42.600;23.476;2022-09-29T06:46:26;16.47;67.15
67942;SHT31;54731;42.600;23.476;2022-09-29T06:48:55;16.48;67.56
67942;SHT31;54731;42.600;23.476;2022-09-29T06:51:21;16.56;67.90
67942;SHT31;54731;42.600;23.476;2022-09-29T06:53:48;16.56;67.63
67942;SHT31;54731;42.600;23.476;2022-09-29T06:56:14;16.56;67.19
67942;SHT31;54731;42.600;23.476;2022-09-29T06:58:39;16.62;67.98
67942;SHT31;54731;42.600;23.476;2022-09-29T07:01:04;16.61;68.51
67942;SHT31;54731;42.600;23.476;2022-09-29T07:03:30;16.73;69.13
67942;SHT31;54731;42.600;23.476;2022-09-29T07:05:56;16.71;68.72
67942;SHT31;54731;42.600;23.476;2022-09-29T07:08:21;16.72;69.30
67942;SHT31;54731;42.600;23.476;2022-09-29T07:10:47;16.72;66.89
67942;SHT31;54731;42.600;23.476;2022-09-29T07:13:12;16.77;66.94
67942;SHT31;54731;42.600;23.476;2022-09-29T07:15:37;16.80;66.07
67942;SHT31;54731;42.600;23.476;2022-09-29T07:18:03;16.82;66.51
67942;SHT31;54731;42.600;23.476;2022-09-29T07:20:29;16.87;67.16
67942;SHT31;54731;42.600;23.476;2022-09-29T07:22:54;16.92;66.94
67942;SHT31;54731;42.600;23.476;2022-09-29T07:25:20;16.87;66.82
67942;SHT31;54731;42.600;23.476;2022-09-29T07:27:46;16.93;67.21
67942;SHT31;54731;42.600;23.476;2022-09-29T07:30:13;17.00;66.19
67942;SHT31;54731;42.600;23.476;2022-09-29T07:32:38;17.06;67.28
67942;SHT31;54731;42.600;23.476;2022-09-29T07:35:04;17.13;65.80
67942;SHT31;54731;42.600;23.476;2022-09-29T07:37:29;17.17;66.55
67942;SHT31;54731;42.600;23.476;2022-09-29T07:39:55;17.17;66.13
67942;SHT31;54731;42.600;23.476;2022-09-29T07:42:20;17.22;65.81
67942;SHT31;54731;42.600;23.476;2022-09-29T07:44:46;17.20;66.72
67942;SHT31;54731;42.600;23.476;2022-09-29T07:47:12;17.22;66.28
67942;SHT31;54731;42.600;23.476;2022-09-29T07:49:37;17.24;66.21
67942;SHT31;54731;42.600;23.476;2022-09-29T07:52:03;17.31;66.85
67942;SHT31;54731;42.600;23.476;2022-09-29T07:54:28;17.38;66.63
67942;SHT31;54731;42.600;23.476;2022-09-29T07:56:53;17.47;65.86
67942;SHT31;54731;42.600;23.476;2022-09-29T07:59:19;17.55;66.05
67942;SHT31;54731;42.600;23.476;2022-09-29T08:01:44;17.63;65.41
67942;SHT31;54731;42.600;23.476;2022-09-29T08:04:09;17.70;65.56
67942;SHT31;54731;42.600;23.476;2022-09-29T08:06:35;17.75;65.32
67942;SHT31;54731;42.600;23.476;2022-09-29T08:09:00;17.88;64.34
67942;SHT31;54731;42.600;23.476;2022-09-29T08:11:25;17.94;64.54
67942;SHT31;54731;42.600;23.476;2022-09-29T08:13:51;18.05;65.01
67942;SHT31;54731;42.600;23.476;2022-09-29T08:16:16;18.16;64.77
67942;SHT31;54731;42.600;23.476;2022-09-29T08:18:41;18.25;62.75
67942;SHT31;54731;42.600;23.476;2022-09-29T08:21:08;18.39;60.47
67942;SHT31;54731;42.600;23.476;2022-09-29T08:23:36;18.56;60.80
67942;SHT31;54731;42.600;23.476;2022-09-29T08:26:03;18.64;62.74
67942;SHT31;54731;42.600;23.476;2022-09-29T08:28:30;18.83;62.53
67942;SHT31;54731;42.600;23.476;2022-09-29T08:30:56;18.94;63.92
67942;SHT31;54731;42.600;23.476;2022-09-29T08:33:21;19.02;62.23
67942;SHT31;54731;42.600;23.476;2022-09-29T08:35:54;19.00;63.56
67942;SHT31;54731;42.600;23.476;2022-09-29T08:38:19;19.03;62.71
67942;SHT31;54731;42.600;23.476;2022-09-29T08:40:45;19.07;63.52
67942;SHT31;54731;42.600;23.476;2022-09-29T08:43:19;19.14;62.37
67942;SHT31;54731;42.600;23.476;2022-09-29T08:45:54;19.21;61.17
67942;SHT31;54731;42.600;23.476;2022-09-29T08:48:24;19.30;58.37
67942;SHT31;54731;42.600;23.476;2022-09-29T08:51:03;19.53;59.36
67942;SHT31;54731;42.600;23.476;2022-09-29T08:53:34;19.58;58.23
67942;SHT31;54731;42.600;23.476;2022-09-29T08:56:05;19.69;60.80
67942;SHT31;54731;42.600;23.476;2022-09-29T08:58:33;19.79;60.96
67942;SHT31;54731;42.600;23.476;2022-09-29T09:24:58;20.32;52.58
67942;SHT31;54731;42.600;23.476;2022-09-29T09:27:26;20.42;54.58
67942;SHT31;54731;42.600;23.476;2022-09-29T09:30:06;20.52;53.79
67942;SHT31;54731;42.600;23.476;2022-09-29T09:32:41;20.74;51.51
67942;SHT31;54731;42.600;23.476;2022-09-29T09:35:29;21.12;49.93
67942;SHT31;54731;42.600;23.476;2022-09-29T09:38:02;21.12;47.29
67942;SHT31;54731;42.600;23.476;2022-09-29T09:40:41;21.21;48.68
67942;SHT31;54731;42.600;23.476;2022-09-29T09:43:21;21.25;48.60
67942;SHT31;54731;42.600;23.476;2022-09-29T09:46:10;21.41;47.19
67942;SHT31;54731;42.600;23.476;2022-09-29T09:48:41;21.52;46.68
67942;SHT31;54731;42.600;23.476;2022-09-29T09:54:09;21.81;45.88
67942;SHT31;54731;42.600;23.476;2022-09-29T10:01:39;22.03;44.99
67942;SHT31;54731;42.600;23.476;2022-09-29T10:04:04;22.09;45.12
67942;SHT31;54731;42.600;23.476;2022-09-29T10:06:29;22.23;45.23
67942;SHT31;54731;42.600;23.476;2022-09-29T10:08:55;22.36;45.19
67942;SHT31;54731;42.600;23.476;2022-09-29T10:11:23;22.51;44.56
67942;SHT31;54731;42.600;23.476;2022-09-29T10:13:56;22.57;42.44
67942;SHT31;54731;42.600;23.476;2022-09-29T10:16:27;22.65;43.15
67942;SHT31;54731;42.600;23.476;2022-09-29T10:18:55;22.78;44.07
67942;SHT31;54731;42.600;23.476;2022-09-29T10:21:41;22.86;43.54
67942;SHT31;54731;42.600;23.476;2022-09-29T10:24:29;23.00;43.31
67942;SHT31;54731;42.600;23.476;2022-09-29T10:26:56;23.19;43.57
67942;SHT31;54731;42.600;23.476;2022-09-29T10:32:05;23.35;43.12
67942;SHT31;54731;42.600;23.476;2022-09-29T10:34:33;23.51;44.57
67942;SHT31;54731;42.600;23.476;2022-09-29T10:37:06;23.73;44.58
67942;SHT31;54731;42.600;23.476;2022-09-29T10:39:44;23.49;43.25
67942;SHT31;54731;42.600;23.476;2022-09-29T10:47:37;23.82;43.13
67942;SHT31;54731;42.600;23.476;2022-09-29T10:50:21;23.90;41.59
67942;SHT31;54731;42.600;23.476;2022-09-29T10:53:02;24.02;42.44
67942;SHT31;54731;42.600;23.476;2022-09-29T10:55:32;24.12;40.96
67942;SHT31;54731;42.600;23.476;2022-09-29T10:58:15;24.27;40.82
67942;SHT31;54731;42.600;23.476;2022-09-29T11:00:44;24.24;41.72
67942;SHT31;54731;42.600;23.476;2022-09-29T11:03:24;24.03;41.77
67942;SHT31;54731;42.600;23.476;2022-09-29T11:06:11;23.87;42.92
67942;SHT31;54731;42.600;23.476;2022-09-29T11:11:26;23.66;42.40
67942;SHT31;54731;42.600;23.476;2022-09-29T11:13:53;23.59;43.15
67942;SHT31;54731;42.600;23.476;2022-09-29T11:16:26;23.69;42.99
67942;SHT31;54731;42.600;23.476;2022-09-29T11:18:54;23.63;42.62
67942;SHT31;54731;42.600;23.476;2022-09-29T11:30:20;23.66;42.56
67942;SHT31;54731;42.600;23.476;2022-09-29T11:36:07;24.07;41.82
67942;SHT31;54731;42.600;23.476;2022-09-29T11:38:48;24.33;40.40
67942;SHT31;54731;42.600;23.476;2022-09-29T11:41:41;24.80;41.52
67942;SHT31;54731;42.600;23.476;2022-09-29T11:47:06;25.05;41.18
67942;SHT31;54731;42.600;23.476;2022-09-29T11:49:57;25.38;40.17
67942;SHT31;54731;42.600;23.476;2022-09-29T11:58:04;26.40;37.59
67942;SHT31;54731;42.600;23.476;2022-09-29T12:00:50;26.55;37.02
67942;SHT31;54731;42.600;23.476;2022-09-29T12:03:38;26.84;36.62
67942;SHT31;54731;42.600;23.476;2022-09-29T12:06:29;27.01;36.63
67942;SHT31;54731;42.600;23.476;2022-09-29T12:09:05;26.81;36.47
67942;SHT31;54731;42.600;23.476;2022-09-29T12:17:47;27.12;37.01
67942;SHT31;54731;42.600;23.476;2022-09-29T12:20:18;27.13;34.83
67942;SHT31;54731;42.600;23.476;2022-09-29T12:22:46;27.12;36.26
67942;SHT31;54731;42.600;23.476;2022-09-29T12:25:15;27.02;36.68
67942;SHT31;54731;42.600;23.476;2022-09-29T12:27:44;26.90;36.97
67942;SHT31;54731;42.600;23.476;2022-09-29T12:32:53;26.98;36.58
67942;SHT31;54731;42.600;23.476;2022-09-29T12:35:33;26.82;36.76
67942;SHT31;54731;42.600;23.476;2022-09-29T12:41:13;26.54;38.03
67942;SHT31;54731;42.600;23.476;2022-09-29T12:43:59;26.50;37.64
67942;SHT31;54731;42.600;23.476;2022-09-29T12:46:48;26.33;37.23
67942;SHT31;54731;42.600;23.476;2022-09-29T12:49:22;26.20;38.48
67942;SHT31;54731;42.600;23.476;2022-09-29T12:51:51;25.96;38.63
67942;SHT31;54731;42.600;23.476;2022-09-29T12:54:19;25.66;38.96
67942;SHT31;54731;42.600;23.476;2022-09-29T12:59:39;25.34;38.98
67942;SHT31;54731;42.600;23.476;2022-09-29T13:05:30;25.32;40.12
67942;SHT31;54731;42.600;23.476;2022-09-29T13:16:02;25.21;40.13
67942;SHT31;54731;42.600;23.476;2022-09-29T13:23:57;24.95;41.90
67942;SHT31;54731;42.600;23.476;2022-09-29T13:29:28;24.67;43.04
67942;SHT31;54731;42.600;23.476;2022-09-29T13:31:54;24.67;43.02
67942;SHT31;54731;42.600;23.476;2022-09-29T13:34:30;24.72;44.25
67942;SHT31;54731;42.600;23.476;2022-09-29T13:37:17;24.67;42.19
67942;SHT31;54731;42.600;23.476;2022-09-29T13:39:57;24.72;42.53
67942;SHT31;54731;42.600;23.476;2022-09-29T13:47:52;24.72;44.35
67942;SHT31;54731;42.600;23.476;2022-09-29T13:55:51;24.74;45.91
67942;SHT31;54731;42.600;23.476;2022-09-29T13:58:27;24.70;45.44
67942;SHT31;54731;42.600;23.476;2022-09-29T14:00:55;24.56;44.59
67942;SHT31;54731;42.600;23.476;2022-09-29T14:06:15;24.36;41.58
67942;SHT31;54731;42.600;23.476;2022-09-29T14:09:11;24.29;43.12
67942;SHT31;54731;42.600;23.476;2022-09-29T14:11:46;24.23;43.84
67942;SHT31;54731;42.600;23.476;2022-09-29T14:14:40;24.19;46.32
67942;SHT31;54731;42.600;23.476;2022-09-29T14:17:11;24.16;45.44
67942;SHT31;54731;42.600;23.476;2022-09-29T14:19:56;23.99;43.71
67942;SHT31;54731;42.600;23.476;2022-09-29T14:30:40;23.51;45.91
67942;SHT31;54731;42.600;23.476;2022-09-29T14:35:38;23.35;47.69
67942;SHT31;54731;42.600;23.476;2022-09-29T14:38:14;23.28;46.63
67942;SHT31;54731;42.600;23.476;2022-09-29T14:40:57;22.93;47.53
67942;SHT31;54731;42.600;23.476;2022-09-29T14:51:34;21.86;52.21
67942;SHT31;54731;42.600;23.476;2022-09-29T14:54:24;21.32;54.39
67942;SHT31;54731;42.600;23.476;2022-09-29T14:57:10;21.14;55.35
67942;SHT31;54731;42.600;23.476;2022-09-29T15:00:00;20.97;55.63
67942;SHT31;54731;42.600;23.476;2022-09-29T15:02:27;20.79;56.30
67942;SHT31;54731;42.600;23.476;2022-09-29T15:04:54;20.74;55.74
67942;SHT31;54731;42.600;23.476;2022-09-29T15:07:22;20.57;56.40
67942;SHT31;54731;42.600;23.476;2022-09-29T15:09:53;20.34;57.32
67942;SHT31;54731;42.600;23.476;2022-09-29T15:12:30;20.30;57.90
67942;SHT31;54731;42.600;23.476;2022-09-29T15:14:56;20.28;58.17
67942;SHT31;54731;42.600;23.476;2022-09-29T15:17:50;20.15;58.09
67942;SHT31;54731;42.600;23.476;2022-09-29T15:25:39;20.09;57.92
67942;SHT31;54731;42.600;23.476;2022-09-29T15:28:17;19.96;57.98
67942;SHT31;54731;42.600;23.476;2022-09-29T15:30:44;19.89;58.98
67942;SHT31;54731;42.600;23.476;2022-09-29T15:33:24;19.88;58.90
67942;SHT31;54731;42.600;23.476;2022-09-29T15:36:06;19.82;59.09
67942;SHT31;54731;42.600;23.476;2022-09-29T15:38:37;19.83;59.33
67942;SHT31;54731;42.600;23.476;2022-09-29T15:41:12;19.81;59.64
67942;SHT31;54731;42.600;23.476;2022-09-29T15:44:14;19.72;60.10
67942;SHT31;54731;42.600;23.476;2022-09-29T15:46:48;19.67;61.24
67942;SHT31;54731;42.600;23.476;2022-09-29T15:49:17;19.59;61.40
67942;SHT31;54731;42.600;23.476;2022-09-29T15:52:02;19.59;60.69
67942;SHT31;54731;42.600;23.476;2022-09-29T15:54:37;19.61;60.83
67942;SHT31;54731;42.600;23.476;2022-09-29T15:57:03;19.54;61.88
67942;SHT31;54731;42.600;23.476;2022-09-29T16:02:14;19.50;62.22
67942;SHT31;54731;42.600;23.476;2022-09-29T16:04:42;19.44;62.74
67942;SHT31;54731;42.600;23.476;2022-09-29T16:07:19;19.43;61.87
67942;SHT31;54731;42.600;23.476;2022-09-29T16:09:46;19.44;61.59
67942;SHT31;54731;42.600;23.476;2022-09-29T16:12:15;19.41;63.17
67942;SHT31;54731;42.600;23.476;2022-09-29T16:14:41;19.41;63.70
67942;SHT31;54731;42.600;23.476;2022-09-29T16:17:07;19.28;65.10
67942;SHT31;54731;42.600;23.476;2022-09-29T16:19:33;19.24;64.62
67942;SHT31;54731;42.600;23.476;2022-09-29T16:22:03;19.10;66.08
67942;SHT31;54731;42.600;23.476;2022-09-29T16:24:53;19.03;67.29
67942;SHT31;54731;42.600;23.476;2022-09-29T16:27:57;18.97;68.20
67942;SHT31;54731;42.600;23.476;2022-09-29T16:35:39;18.77;67.17
67942;SHT31;54731;42.600;23.476;2022-09-29T16:38:33;18.64;65.97
67942;SHT31;54731;42.600;23.476;2022-09-29T16:41:00;18.59;67.72
67942;SHT31;54731;42.600;23.476;2022-09-29T16:43:30;18.57;67.55
67942;SHT31;54731;42.600;23.476;2022-09-29T16:46:00;18.59;66.54
67942;SHT31;54731;42.600;23.476;2022-09-29T16:48:28;18.48;66.06
67942;SHT31;54731;42.600;23.476;2022-09-29T16:50:55;18.38;66.52
67942;SHT31;54731;42.600;23.476;2022-09-29T16:53:25;18.22;64.73
67942;SHT31;54731;42.600;23.476;2022-09-29T16:56:04;18.12;64.29
67942;SHT31;54731;42.600;23.476;2022-09-29T16:58:30;18.05;64.32
67942;SHT31;54731;42.600;23.476;2022-09-29T17:00:56;17.94;66.16
67942;SHT31;54731;42.600;23.476;2022-09-29T17:03:21;17.91;67.39
67942;SHT31;54731;42.600;23.476;2022-09-29T17:05:47;17.77;69.50
67942;SHT31;54731;42.600;23.476;2022-09-29T17:08:18;17.64;71.16
67942;SHT31;54731;42.600;23.476;2022-09-29T17:10:44;17.51;71.63
67942;SHT31;54731;42.600;23.476;2022-09-29T17:13:11;17.41;71.77
67942;SHT31;54731;42.600;23.476;2022-09-29T17:15:37;17.40;73.43
67942;SHT31;54731;42.600;23.476;2022-09-29T17:18:03;17.38;74.27
67942;SHT31;54731;42.600;23.476;2022-09-29T17:20:28;17.37;74.81
67942;SHT31;54731;42.600;23.476;2022-09-29T17:22:55;17.36;75.23
67942;SHT31;54731;42.600;23.476;2022-09-29T17:25:21;17.31;76.19
67942;SHT31;54731;42.600;23.476;2022-09-29T17:27:46;17.19;76.47
67942;SHT31;54731;42.600;23.476;2022-09-29T17:30:15;17.20;76.96
67942;SHT31;54731;42.600;23.476;2022-09-29T17:32:41;17.17;76.63
67942;SHT31;54731;42.600;23.476;2022-09-29T17:35:07;17.12;77.70
67942;SHT31;54731;42.600;23.476;2022-09-29T17:37:32;17.09;77.90
67942;SHT31;54731;42.600;23.476;2022-09-29T17:39:58;17.07;77.54
67942;SHT31;54731;42.600;23.476;2022-09-29T17:42:23;16.99;78.41
67942;SHT31;54731;42.600;23.476;2022-09-29T17:44:48;16.95;78.35
67942;SHT31;54731;42.600;23.476;2022-09-29T17:47:14;16.97;77.98
67942;SHT31;54731;42.600;23.476;2022-09-29T17:49:41;16.95;78.12
67942;SHT31;54731;42.600;23.476;2022-09-29T17:52:07;16.89;77.93
67942;SHT31;54731;42.600;23.476;2022-09-29T17:54:32;16.89;77.88
67942;SHT31;54731;42.600;23.476;2022-09-29T17:56:58;16.85;77.74
67942;SHT31;54731;42.600;23.476;2022-09-29T17:59:23;16.82;77.87
67942;SHT31;54731;42.600;23.476;2022-09-29T18:01:49;16.69;78.16
67942;SHT31;54731;42.600;23.476;2022-09-29T18:04:14;16.65;78.08
67942;SHT31;54731;42.600;23.476;2022-09-29T18:06:39;16.63;77.86
67942;SHT31;54731;42.600;23.476;2022-09-29T18:09:13;16.51;78.28
67942;SHT31;54731;42.600;23.476;2022-09-29T18:11:39;16.52;78.31
67942;SHT31;54731;42.600;23.476;2022-09-29T18:14:04;16.48;78.71
67942;SHT31;54731;42.600;23.476;2022-09-29T18:16:29;16.40;79.35
67942;SHT31;54731;42.600;23.476;2022-09-29T18:18:55;16.45;79.17
67942;SHT31;54731;42.600;23.476;2022-09-29T18:21:20;16.42;79.69
67942;SHT31;54731;42.600;23.476;2022-09-29T18:23:46;16.44;80.03
67942;SHT31;54731;42.600;23.476;2022-09-29T18:26:12;16.34;79.82
67942;SHT31;54731;42.600;23.476;2022-09-29T18:28:37;16.31;80.60
67942;SHT31;54731;42.600;23.476;2022-09-29T18:31:14;16.32;81.03
67942;SHT31;54731;42.600;23.476;2022-09-29T18:33:41;16.32;79.84